Terminal Aerodrome Forecast
Issued by NWS Upton, NY

Home | Current Version | Previous Version | Text Only | Print | Product List | Glossary On
Versions: 1 2 3 4 5 6 7 8 9 10 11 12 13 14 15 16 17 18 19 20 21 22 23 24 25 26 27 28 29
000
FTUS41 KOKX 230800 AAA
TAFISP
TAF AMD
KISP 230830Z 2309/2406 30010G19KT P6SM BKN035
     FM231400 31017G26KT P6SM SCT040
     FM231800 32022G33KT P6SM SCT050
     FM240200 32015G23KT P6SM SKC=

USA.gov is the U.S. government's official web portal to all federal, state and local government web resources and services.